Time;durP1;ratioP1;P1;durP2;ratioP2;P2;SDS_P1;SDS_P2;PMS_P1;PMS_P2;Temp;Humidity;BMP_temperature;BMP_pressure;BME280_temperature;BME280_humidity;BME280_pressure;Samples;Min_cycle;Max_cycle;Signal;HPM_P1;HPM_P2
2022/07/26 00:00:48;;;;;;;;;;;;;;;25.00;52.60;99357.06;3166361;28;19931;-67
2022/07/26 00:02:19;;;;;;;;;;;;;;;24.96;52.85;99352.09;3161206;28;19928;-66
2022/07/26 00:03:51;;;;;;;;;;;;;;;24.98;52.56;99357.22;3166817;28;19931;-66
2022/07/26 00:05:23;;;;;;;;;;;;;;;25.00;52.27;99357.88;3164038;28;19932;-67
2022/07/26 00:06:55;;;;;;;;;;;;;;;25.03;52.02;99362.06;3167218;28;19963;-67
2022/07/26 00:08:26;;;;;;;;;;;;;;;25.04;52.11;99361.84;3168519;28;19935;-67
2022/07/26 00:09:59;;;;;;;;;;;;;;;25.04;52.05;99353.88;3165780;28;19924;-67
2022/07/26 00:11:32;;;;;;;;;;;;;;;25.05;52.13;99357.34;3160690;28;19924;-67
2022/07/26 00:13:03;;;;;;;;;;;;;;;25.05;52.13;99357.34;3169747;28;19928;-67
2022/07/26 00:14:35;;;;;;;;;;;;;;;25.03;52.50;99362.88;3170560;28;20367;-67
2022/07/26 00:16:05;;;;;;;;;;;;;;;25.00;52.61;99355.22;3167402;28;20050;-67
2022/07/26 00:17:37;;;;;;;;;;;;;;;25.00;52.13;99363.22;3158745;28;20355;-67
2022/07/26 00:19:09;;;;;;;;;;;;;;;25.02;52.09;99363.84;3162799;28;20370;-67
2022/07/26 00:20:40;;;;;;;;;;;;;;;25.07;51.53;99364.19;3161854;28;19924;-67
2022/07/26 00:24:00;;;;;;;;;;;;;;;25.08;51.80;99362.34;3166023;28;19924;-67
2022/07/26 00:25:33;;;;;;;;;;;;;;;25.08;51.69;99357.88;3163894;28;19928;-67
2022/07/26 00:27:04;;;;;;;;;;;;;;;25.09;51.57;99364.00;3166943;28;20311;-66
2022/07/26 00:28:36;;;;;;;;;;;;;;;25.07;51.56;99358.03;3167783;28;19930;-67
2022/07/26 00:30:09;;;;;;;;;;;;;;;25.05;51.91;99357.34;3167858;28;19925;-67
2022/07/26 00:31:40;;;;;;;;;;;;;;;25.02;52.25;99357.69;3169109;28;19931;-67
2022/07/26 00:33:12;;;;;;;;;;;;;;;24.91;53.23;99357.09;3160151;28;19928;-67
2022/07/26 00:34:43;;;;;;;;;;;;;;;24.84;53.57;99361.44;3169858;28;19924;-67
2022/07/26 00:36:15;;;;;;;;;;;;;;;24.73;53.94;99359.97;3162113;28;19932;-67
2022/07/26 00:37:47;;;;;;;;;;;;;;;24.72;54.02;99366.28;3168030;28;19928;-66
2022/07/26 00:39:18;;;;;;;;;;;;;;;24.77;53.47;99359.63;3163960;28;19931;-67
2022/07/26 00:40:51;;;;;;;;;;;;;;;24.78;53.10;99358.63;3163887;28;20461;-67
2022/07/26 00:42:23;;;;;;;;;;;;;;;24.79;53.00;99362.94;3167382;28;19924;-66
2022/07/26 00:43:55;;;;;;;;;;;;;;;24.80;53.13;99359.28;3168595;28;19935;-68
2022/07/26 00:45:27;;;;;;;;;;;;;;;24.81;52.73;99363.59;3169764;28;19936;-68
2022/07/26 00:46:58;;;;;;;;;;;;;;;24.81;52.87;99367.09;3169959;28;19950;-67
2022/07/26 00:48:29;;;;;;;;;;;;;;;24.81;52.84;99361.78;3170945;28;19924;-67
2022/07/26 00:50:01;;;;;;;;;;;;;;;24.83;53.15;99369.59;3170205;28;20320;-67
2022/07/26 00:51:32;;;;;;;;;;;;;;;24.83;53.25;99364.28;3162385;28;19924;-67
2022/07/26 00:53:03;;;;;;;;;;;;;;;24.71;53.27;99347.84;3162510;28;20421;-69
2022/07/26 00:54:36;;;;;;;;;;;;;;;24.79;53.19;99365.59;3160955;28;19928;-69
2022/07/26 00:56:09;;;;;;;;;;;;;;;24.75;53.76;99354.47;3153997;28;19924;-67
2022/07/26 00:57:40;;;;;;;;;;;;;;;24.71;53.58;99361.16;3170668;28;19923;-67
2022/07/26 00:59:12;;;;;;;;;;;;;;;24.70;53.79;99362.16;3164723;28;19935;-67
2022/07/26 01:00:44;;;;;;;;;;;;;;;24.71;53.56;99356.66;3170943;28;20000;-67
2022/07/26 01:02:18;;;;;;;;;;;;;;;24.69;53.88;99355.97;3168751;28;19935;-68
2022/07/26 01:03:51;;;;;;;;;;;;;;;24.63;54.30;99363.84;3170813;28;19928;-68
2022/07/26 01:05:23;;;;;;;;;;;;;;;24.59;54.44;99357.19;3171653;28;19924;-68
2022/07/26 01:06:55;;;;;;;;;;;;;;;24.51;55.04;99358.84;3171590;28;19928;-68
2022/07/26 01:08:27;;;;;;;;;;;;;;;24.45;55.31;99354.22;3172926;28;19936;-68
2022/07/26 01:09:58;;;;;;;;;;;;;;;24.39;55.41;99352.19;3167417;28;19924;-67
2022/07/26 01:11:31;;;;;;;;;;;;;;;24.43;54.60;99358.03;3160649;28;20418;-67
2022/07/26 01:13:03;;;;;;;;;;;;;;;24.47;54.46;99354.06;3163616;28;20320;-68
2022/07/26 01:14:35;;;;;;;;;;;;;;;24.48;54.70;99355.72;3169128;28;20324;-68
2022/07/26 01:16:06;;;;;;;;;;;;;;;24.43;55.25;99352.72;3168754;28;20415;-68
2022/07/26 01:17:37;;;;;;;;;;;;;;;24.36;55.28;99351.72;3166369;28;19931;-68
2022/07/26 01:19:09;;;;;;;;;;;;;;;24.28;55.77;99349.88;3160439;28;19934;-68
2022/07/26 01:20:40;;;;;;;;;;;;;;;24.20;55.70;99345.41;3157571;28;19944;-67
2022/07/26 01:22:13;;;;;;;;;;;;;;;24.24;55.46;99345.91;3160536;28;19924;-67
2022/07/26 01:23:43;;;;;;;;;;;;;;;24.23;55.34;99347.75;3164410;28;19935;-68
2022/07/26 01:25:15;;;;;;;;;;;;;;;24.24;55.16;99351.22;3170697;28;19934;-68
2022/07/26 01:26:46;;;;;;;;;;;;;;;24.27;55.15;99348.22;3168894;28;20270;-68
2022/07/26 01:28:18;;;;;;;;;;;;;;;24.17;55.50;99343.09;3170516;28;19997;-68
2022/07/26 01:29:50;;;;;;;;;;;;;;;24.15;55.60;99341.59;3160779;28;19928;-68
2022/07/26 01:31:22;;;;;;;;;;;;;;;24.17;55.40;99347.59;3172695;28;19927;-68
2022/07/26 01:32:53;;;;;;;;;;;;;;;24.13;55.33;99336.44;3166174;28;19924;-68
2022/07/26 01:34:25;;;;;;;;;;;;;;;24.20;55.07;99342.75;3166680;28;19928;-68
2022/07/26 01:35:58;;;;;;;;;;;;;;;24.25;54.22;99351.06;3165415;28;20341;-67
2022/07/26 01:37:31;;;;;;;;;;;;;;;24.24;55.04;99346.72;3166038;28;19934;-67
2022/07/26 01:39:03;;;;;;;;;;;;;;;24.15;55.12;99344.25;3168001;28;19931;-67
2022/07/26 01:40:34;;;;;;;;;;;;;;;24.14;54.73;99343.44;3168548;28;20019;-67
2022/07/26 01:42:06;;;;;;;;;;;;;;;24.17;54.84;99347.59;3169093;28;19928;-67
2022/07/26 01:43:38;;;;;;;;;;;;;;;24.18;54.53;99342.09;3170310;28;19936;-67
2022/07/26 01:45:09;;;;;;;;;;;;;;;24.19;54.27;99348.22;3171369;28;19992;-67
2022/07/26 01:46:40;;;;;;;;;;;;;;;24.19;54.33;99349.06;3171289;28;20432;-67
2022/07/26 01:48:12;;;;;;;;;;;;;;;24.19;54.44;99346.41;3170668;28;19924;-67
2022/07/26 01:49:44;;;;;;;;;;;;;;;24.21;53.82;99341.75;3171209;28;20512;-66
2022/07/26 01:51:15;;;;;;;;;;;;;;;24.24;54.00;99341.41;3166826;28;19928;-66
2022/07/26 01:52:48;;;;;;;;;;;;;;;24.27;53.57;99348.22;3163995;28;19981;-66
2022/07/26 01:54:20;;;;;;;;;;;;;;;24.28;53.55;99345.41;3159994;28;19989;-67
2022/07/26 01:55:50;;;;;;;;;;;;;;;24.29;53.77;99343.59;3159591;28;19924;-67
2022/07/26 01:57:22;;;;;;;;;;;;;;;24.29;53.60;99338.25;3171647;28;19930;-67
2022/07/26 01:58:53;;;;;;;;;;;;;;;24.29;53.48;99343.59;3171265;28;19924;-67
2022/07/26 02:00:41;;;;;;;;;;;;;;;24.27;53.53;99337.59;3171239;28;20154;-67
2022/07/26 02:02:12;;;;;;;;;;;;;;;24.26;53.39;99335.94;3170852;28;20415;-67
2022/07/26 02:03:44;;;;;;;;;;;;;;;24.24;53.17;99337.94;3165332;28;20007;-67
2022/07/26 02:05:14;;;;;;;;;;;;;;;24.25;53.19;99336.91;3166275;28;19945;-67
2022/07/26 02:06:46;;;;;;;;;;;;;;;24.23;53.03;99338.94;3166497;28;19932;-66
2022/07/26 02:08:19;;;;;;;;;;;;;;;24.19;53.57;99335.75;3166821;28;19924;-67
2022/07/26 02:09:49;;;;;;;;;;;;;;;24.17;53.43;99335.13;3162174;28;19928;-66
2022/07/26 02:11:21;;;;;;;;;;;;;;;24.16;53.83;99336.09;3160160;28;19924;-66
2022/07/26 02:12:53;;;;;;;;;;;;;;;24.09;53.74;99337.78;3169917;28;19924;-67
2022/07/26 02:14:24;;;;;;;;;;;;;;;24.10;53.68;99335.94;3170209;28;19927;-66
2022/07/26 02:15:57;;;;;;;;;;;;;;;24.12;53.84;99332.13;3169199;28;20381;-66
2022/07/26 02:17:29;;;;;;;;;;;;;;;24.11;53.90;99333.13;3169941;28;19978;-66
2022/07/26 02:19:00;;;;;;;;;;;;;;;24.12;53.54;99333.97;3170343;28;20297;-66
2022/07/26 02:20:32;;;;;;;;;;;;;;;24.13;53.42;99332.94;3166808;28;20445;-66
2022/07/26 02:22:03;;;;;;;;;;;;;;;24.13;53.75;99339.09;3165603;28;20515;-67
2022/07/26 02:23:37;;;;;;;;;;;;;;;24.14;53.56;99338.13;3161108;28;19927;-67
2022/07/26 02:25:07;;;;;;;;;;;;;;;24.17;53.49;99336.94;3162518;28;19935;-66
2022/07/26 02:26:39;;;;;;;;;;;;;;;24.18;53.06;99334.09;3167435;28;19939;-66
2022/07/26 02:28:10;;;;;;;;;;;;;;;24.20;53.11;99333.94;3167655;28;19924;-66
2022/07/26 02:29:41;;;;;;;;;;;;;;;24.19;53.19;99333.09;3167739;28;19931;-66
2022/07/26 02:31:13;;;;;;;;;;;;;;;24.19;53.21;99330.44;3167064;28;19927;-66
2022/07/26 02:32:43;;;;;;;;;;;;;;;24.18;52.95;99328.78;3167855;28;19981;-66
2022/07/26 02:34:15;;;;;;;;;;;;;;;24.19;53.14;99334.94;3168162;28;19972;-66
2022/07/26 02:35:47;;;;;;;;;;;;;;;24.17;52.71;99326.31;3164812;28;19935;-66
2022/07/26 02:37:18;;;;;;;;;;;;;;;24.17;53.31;99337.78;3162715;28;20396;-66
2022/07/26 02:38:51;;;;;;;;;;;;;;;24.17;53.08;99328.97;3169893;28;19931;-66
2022/07/26 02:40:23;;;;;;;;;;;;;;;24.15;52.91;99331.78;3170313;28;19924;-68
2022/07/26 02:41:55;;;;;;;;;;;;;;;24.16;52.76;99338.75;3170933;28;19928;-67
2022/07/26 02:43:27;;;;;;;;;;;;;;;24.15;52.78;99333.63;3171131;28;20026;-67
2022/07/26 02:44:58;;;;;;;;;;;;;;;24.16;52.63;99338.75;3172034;27;19993;-67
2022/07/26 02:46:29;;;;;;;;;;;;;;;24.15;53.26;99336.28;3160216;28;20319;-67
2022/07/26 02:48:01;;;;;;;;;;;;;;;24.11;52.99;99338.44;3163360;28;19924;-68
2022/07/26 02:49:33;;;;;;;;;;;;;;;24.08;53.24;99336.13;3165776;28;19927;-67
2022/07/26 02:51:05;;;;;;;;;;;;;;;24.05;53.61;99339.13;3164257;28;19928;-67
2022/07/26 02:52:35;;;;;;;;;;;;;;;24.02;53.75;99337.63;3159390;28;19927;-67
2022/07/26 02:54:08;;;;;;;;;;;;;;;24.00;53.88;99336.94;3159301;28;19946;-67
2022/07/26 02:55:40;;;;;;;;;;;;;;;23.99;53.76;99340.63;3159542;28;19935;-67
2022/07/26 02:57:12;;;;;;;;;;;;;;;24.00;53.79;99341.44;3164719;28;19993;-67
2022/07/26 02:58:44;;;;;;;;;;;;;;;23.98;53.97;99344.25;3165921;28;20591;-67
2022/07/26 03:00:16;;;;;;;;;;;;;;;23.90;54.33;99338.97;3166153;28;20261;-67
2022/07/26 03:01:48;;;;;;;;;;;;;;;23.84;54.22;99337.78;3165519;28;20308;-67
2022/07/26 03:03:19;;;;;;;;;;;;;;;23.82;54.49;99350.41;3167428;28;20400;-67
2022/07/26 03:04:50;;;;;;;;;;;;;;;23.81;54.70;99340.78;3167166;28;20295;-67
2022/07/26 03:06:22;;;;;;;;;;;;;;;23.79;54.74;99349.91;3168221;28;19924;-67
2022/07/26 03:07:53;;;;;;;;;;;;;;;23.76;54.97;99353.72;3169664;28;19976;-67
2022/07/26 03:09:26;;;;;;;;;;;;;;;23.73;55.13;99356.72;3168642;28;20312;-67
2022/07/26 03:10:59;;;;;;;;;;;;;;;23.75;54.82;99348.56;3162332;28;19931;-67
2022/07/26 03:12:29;;;;;;;;;;;;;;;23.77;54.67;99355.38;3169882;27;20003;-67
2022/07/26 03:14:01;;;;;;;;;;;;;;;23.78;54.82;99356.22;3170226;28;20407;-67
2022/07/26 03:15:32;;;;;;;;;;;;;;;23.75;55.15;99348.56;3170708;28;20010;-67
2022/07/26 03:17:04;;;;;;;;;;;;;;;23.75;54.74;99351.22;3164196;28;20270;-66
2022/07/26 03:18:36;;;;;;;;;;;;;;;23.74;54.94;99357.53;3165301;28;20342;-66
2022/07/26 03:20:08;;;;;;;;;;;;;;;23.70;55.28;99359.72;3152307;28;19924;-66
2022/07/26 03:21:39;;;;;;;;;;;;;;;23.69;55.44;99365.97;3158849;28;19947;-66
2022/07/26 03:23:10;;;;;;;;;;;;;;;23.62;55.87;99355.16;3167834;28;19934;-66
2022/07/26 03:24:43;;;;;;;;;;;;;;;23.55;56.25;99364.81;3165670;28;19988;-66
2022/07/26 03:26:15;;;;;;;;;;;;;;;23.50;56.27;99359.13;3167884;28;19927;-66
2022/07/26 03:27:46;;;;;;;;;;;;;;;23.49;56.17;99364.63;3167521;28;19985;-66
2022/07/26 03:29:18;;;;;;;;;;;;;;;23.47;56.57;99363.97;3162838;28;19925;-66
2022/07/26 03:30:49;;;;;;;;;;;;;;;23.45;56.42;99364.09;3165534;28;19935;-66
2022/07/26 03:32:21;;;;;;;;;;;;;;;23.47;56.60;99377.25;3169045;28;20364;-68
2022/07/26 03:33:53;;;;;;;;;;;;;;;23.47;56.16;99371.94;3164340;28;20011;-67
2022/07/26 03:35:24;;;;;;;;;;;;;;;23.50;56.11;99377.75;3169459;28;20441;-68
2022/07/26 03:36:56;;;;;;;;;;;;;;;23.53;56.03;99374.75;3161633;28;19956;-68
2022/07/26 03:38:27;;;;;;;;;;;;;;;23.57;55.77;99384.09;3169265;28;19935;-68
2022/07/26 03:40:00;;;;;;;;;;;;;;;23.59;55.45;99378.59;3166087;28;19981;-68
2022/07/26 03:41:32;;;;;;;;;;;;;;;23.60;55.46;99383.75;3165235;28;20342;-68
2022/07/26 03:43:03;;;;;;;;;;;;;;;23.62;55.47;99378.28;3165637;28;20309;-68
2022/07/26 03:44:35;;;;;;;;;;;;;;;23.61;55.91;99373.97;3165961;28;19923;-67
2022/07/26 03:46:07;;;;;;;;;;;;;;;23.60;55.51;99378.44;3166275;28;19928;-67
2022/07/26 03:47:38;;;;;;;;;;;;;;;23.64;55.50;99378.13;3166388;28;19924;-67
2022/07/26 03:49:10;;;;;;;;;;;;;;;23.67;55.32;99381.28;3167552;28;19927;-68
2022/07/26 03:50:41;;;;;;;;;;;;;;;23.68;55.15;99382.09;3167365;28;20052;-68
2022/07/26 03:52:13;;;;;;;;;;;;;;;23.70;55.34;99382.81;3158639;28;20483;-68
2022/07/26 03:53:44;;;;;;;;;;;;;;;23.72;54.83;99383.47;3158739;28;19954;-66
2022/07/26 03:57:15;;;;;;;;;;;;;;;23.74;55.84;99381.47;3152815;28;19985;-66
2022/07/26 03:58:45;;;;;;;;;;;;;;;23.75;55.61;99380.47;3167541;28;20404;-67
2022/07/26 04:00:17;;;;;;;;;;;;;;;23.75;56.04;99383.13;3168025;28;19930;-66
2022/07/26 04:01:49;;;;;;;;;;;;;;;23.72;55.95;99383.47;3167069;28;19927;-66
2022/07/26 04:03:22;;;;;;;;;;;;;;;23.72;55.90;99376.34;3168795;28;20454;-66
2022/07/26 04:04:52;;;;;;;;;;;;;;;23.73;55.74;99372.66;3169397;28;19959;-66
2022/07/26 04:06:24;;;;;;;;;;;;;;;23.72;55.85;99372.81;3169684;28;19935;-66
2022/07/26 04:07:55;;;;;;;;;;;;;;;23.72;55.91;99381.66;3170531;28;19973;-66
2022/07/26 04:09:27;;;;;;;;;;;;;;;23.69;56.12;99373.94;3169506;28;19981;-66
2022/07/26 04:10:59;;;;;;;;;;;;;;;23.70;56.03;99378.31;3158481;28;20369;-66
2022/07/26 04:12:30;;;;;;;;;;;;;;;23.73;55.59;99380.66;3159214;28;19924;-66
2022/07/26 04:14:04;;;;;;;;;;;;;;;23.77;55.68;99373.16;3163319;28;19923;-66
2022/07/26 04:15:35;;;;;;;;;;;;;;;23.80;55.41;99378.97;3164840;28;20385;-66
2022/07/26 04:17:07;;;;;;;;;;;;;;;23.82;55.59;99366.38;3164106;28;20350;-67
2022/07/26 04:18:38;;;;;;;;;;;;;;;23.83;55.69;99367.19;3158484;28;20420;-66
2022/07/26 04:20:10;;;;;;;;;;;;;;;23.84;55.32;99367.03;3158632;28;20317;-66
2022/07/26 04:21:42;;;;;;;;;;;;;;;23.84;55.78;99363.56;3158928;28;20852;-66
2022/07/26 04:23:12;;;;;;;;;;;;;;;23.87;55.15;99363.22;3168610;28;20072;-66
2022/07/26 04:24:44;;;;;;;;;;;;;;;23.91;55.36;99369.88;3168518;28;19928;-66
2022/07/26 04:26:17;;;;;;;;;;;;;;;23.94;54.98;99352.75;3169560;28;19927;-66
2022/07/26 04:27:48;;;;;;;;;;;;;;;23.98;55.19;99359.38;3169323;28;19924;-65
2022/07/26 04:29:20;;;;;;;;;;;;;;;24.01;54.79;99367.03;3168374;28;19927;-67
2022/07/26 04:30:50;;;;;;;;;;;;;;;24.06;54.82;99362.06;3170762;28;19924;-65
2022/07/26 04:32:22;;;;;;;;;;;;;;;24.09;54.81;99364.38;3164088;28;19924;-65
2022/07/26 04:33:54;;;;;;;;;;;;;;;24.13;54.55;99364.88;3164454;28;19950;-65
2022/07/26 04:35:24;;;;;;;;;;;;;;;24.15;54.90;99376.19;3152012;28;19924;-65
2022/07/26 04:36:56;;;;;;;;;;;;;;;24.16;54.77;99367.19;3158618;28;20088;-67
2022/07/26 04:38:27;;;;;;;;;;;;;;;24.17;54.74;99364.38;3167270;28;20420;-65
2022/07/26 04:39:58;;;;;;;;;;;;;;;24.19;54.94;99367.69;3167778;28;19952;-65
2022/07/26 04:41:31;;;;;;;;;;;;;;;24.21;54.86;99364.88;3166864;28;19928;-66
2022/07/26 04:43:03;;;;;;;;;;;;;;;24.25;54.85;99376.81;3166390;28;19931;-65
2022/07/26 04:44:34;;;;;;;;;;;;;;;24.27;55.03;99370.34;3165210;28;19928;-65
2022/07/26 04:46:05;;;;;;;;;;;;;;;24.28;55.04;99371.16;3168145;28;19924;-66
2022/07/26 04:47:36;;;;;;;;;;;;;;;24.31;54.99;99376.16;3168824;28;20343;-65
2022/07/26 04:49:07;;;;;;;;;;;;;;;24.34;55.07;99370.50;3169377;28;19928;-65
2022/07/26 04:50:39;;;;;;;;;;;;;;;24.36;54.94;99368.50;3169594;28;19943;-65
2022/07/26 04:52:11;;;;;;;;;;;;;;;24.38;54.94;99371.84;3160693;28;19924;-66
2022/07/26 04:53:42;;;;;;;;;;;;;;;24.42;54.99;99372.31;3159889;28;19924;-65
2022/07/26 04:55:14;;;;;;;;;;;;;;;24.44;54.94;99371.19;3158288;28;19928;-65
2022/07/26 04:56:47;;;;;;;;;;;;;;;24.47;54.56;99365.53;3164585;28;19923;-67
2022/07/26 04:58:18;;;;;;;;;;;;;;;24.51;54.74;99369.50;3162090;28;19923;-67
2022/07/26 04:59:49;;;;;;;;;;;;;;;24.56;54.33;99373.50;3169758;28;19924;-67
2022/07/26 05:01:21;;;;;;;;;;;;;;;24.58;54.47;99368.81;3169148;28;19944;-67
2022/07/26 05:02:54;;;;;;;;;;;;;;;24.61;54.49;99361.34;3167996;28;19928;-66
2022/07/26 05:04:25;;;;;;;;;;;;;;;24.64;54.52;99368.16;3159149;28;20320;-66
2022/07/26 05:05:57;;;;;;;;;;;;;;;24.66;54.76;99364.31;3165769;28;20352;-66
2022/07/26 05:07:27;;;;;;;;;;;;;;;24.73;54.33;99375.97;3153038;28;20412;-66
2022/07/26 05:08:59;;;;;;;;;;;;;;;24.78;54.10;99370.09;3163988;28;20020;-67
2022/07/26 05:10:32;;;;;;;;;;;;;;;24.82;54.23;99370.63;3161005;28;19925;-66
2022/07/26 05:12:05;;;;;;;;;;;;;;;24.86;53.88;99375.41;3162517;28;19924;-66
2022/07/26 05:13:37;;;;;;;;;;;;;;;24.90;53.88;99365.25;3161580;28;19924;-66
2022/07/26 05:15:09;;;;;;;;;;;;;;;24.96;53.75;99367.22;3158931;28;19934;-67
2022/07/26 05:16:41;;;;;;;;;;;;;;;25.03;53.58;99365.53;3164889;28;19935;-66
2022/07/26 05:18:12;;;;;;;;;;;;;;;25.09;53.41;99364.84;3168734;28;20021;-66
2022/07/26 05:19:43;;;;;;;;;;;;;;;25.15;52.99;99361.50;3169186;28;20381;-66
2022/07/26 05:21:14;;;;;;;;;;;;;;;25.21;53.09;99357.31;3165161;28;19995;-66
2022/07/26 05:22:46;;;;;;;;;;;;;;;25.26;52.87;99362.13;3169760;28;19977;-66
2022/07/26 05:24:18;;;;;;;;;;;;;;;25.27;52.73;99359.28;3170117;28;19981;-66
2022/07/26 05:25:49;;;;;;;;;;;;;;;25.31;52.70;99357.94;3163520;28;19927;-67
2022/07/26 05:27:21;;;;;;;;;;;;;;;25.36;52.41;99349.41;3165006;28;19924;-67
2022/07/26 05:28:53;;;;;;;;;;;;;;;25.40;52.04;99354.19;3167479;28;19936;-68
2022/07/26 05:30:23;;;;;;;;;;;;;;;25.47;51.89;99351.69;3167803;28;20455;-66
2022/07/26 05:31:55;;;;;;;;;;;;;;;25.53;52.01;99350.97;3169072;28;19924;-68
2022/07/26 05:33:25;;;;;;;;;;;;;;;25.60;51.94;99357.25;3170448;28;19931;-68
2022/07/26 05:34:57;;;;;;;;;;;;;;;25.67;51.79;99354.69;3170607;28;19928;-68
2022/07/26 05:36:29;;;;;;;;;;;;;;;25.73;51.64;99353.16;3161188;28;19928;-69
2022/07/26 05:38:00;;;;;;;;;;;;;;;25.79;51.18;99355.97;3169400;28;19931;-66
2022/07/26 05:39:32;;;;;;;;;;;;;;;25.86;51.36;99361.44;3169183;28;19924;-68
2022/07/26 05:41:03;;;;;;;;;;;;;;;25.91;50.94;99353.75;3171084;28;19923;-66
2022/07/26 05:42:36;;;;;;;;;;;;;;;25.97;50.95;99363.69;3171797;28;20320;-68
2022/07/26 05:44:08;;;;;;;;;;;;;;;26.01;50.91;99356.16;3159760;28;19935;-67
2022/07/26 05:45:40;;;;;;;;;;;;;;;26.03;50.79;99357.63;3167692;28;19924;-65
2022/07/26 05:47:12;;;;;;;;;;;;;;;26.05;50.60;99362.78;3160141;28;19989;-65
2022/07/26 05:48:43;;;;;;;;;;;;;;;26.10;50.53;99358.56;3167919;28;19928;-65
2022/07/26 05:50:15;;;;;;;;;;;;;;;26.17;50.69;99361.34;3168321;28;19928;-65
2022/07/26 05:51:46;;;;;;;;;;;;;;;26.20;50.13;99360.16;3160251;28;19946;-65
2022/07/26 05:53:18;;;;;;;;;;;;;;;26.24;50.08;99356.13;3160197;28;20461;-65
2022/07/26 05:54:48;;;;;;;;;;;;;;;26.27;50.22;99361.09;3160247;28;19932;-65
2022/07/26 05:56:20;;;;;;;;;;;;;;;26.32;49.90;99362.22;3160117;28;20478;-65
2022/07/26 05:57:53;;;;;;;;;;;;;;;26.34;50.28;99359.34;3167753;28;19942;-65
2022/07/26 05:59:24;;;;;;;;;;;;;;;26.40;49.93;99360.47;3167944;28;19934;-65
2022/07/26 06:00:56;;;;;;;;;;;;;;;26.42;49.86;99361.94;3167611;28;19923;-65
2022/07/26 06:02:27;;;;;;;;;;;;;;;26.47;49.35;99356.06;3168648;28;19928;-65
2022/07/26 06:03:59;;;;;;;;;;;;;;;26.50;49.60;99363.72;3167917;28;20099;-64
2022/07/26 06:05:31;;;;;;;;;;;;;;;26.54;49.26;99359.69;3168932;28;20011;-65
2022/07/26 06:07:02;;;;;;;;;;;;;;;26.60;49.41;99358.13;3169224;28;19928;-66
2022/07/26 06:08:34;;;;;;;;;;;;;;;26.64;49.46;99354.91;3166723;28;20376;-65
2022/07/26 06:10:06;;;;;;;;;;;;;;;26.71;49.24;99352.31;3165831;28;19924;-65
2022/07/26 06:11:38;;;;;;;;;;;;;;;26.79;48.87;99352.22;3162898;28;19931;-66
2022/07/26 06:13:11;;;;;;;;;;;;;;;26.85;48.81;99351.47;3171495;28;19946;-66
2022/07/26 06:14:43;;;;;;;;;;;;;;;26.96;48.56;99352.88;3171783;28;19924;-65
2022/07/26 06:16:14;;;;;;;;;;;;;;;27.02;48.49;99348.63;3171290;28;20309;-65
2022/07/26 06:17:46;;;;;;;;;;;;;;;27.09;48.24;99346.84;3159790;28;19924;-66
2022/07/26 06:19:17;;;;;;;;;;;;;;;27.13;48.60;99348.16;3165640;28;19977;-65
2022/07/26 06:20:49;;;;;;;;;;;;;;;27.18;48.21;99348.44;3161908;28;19924;-66
2022/07/26 06:22:21;;;;;;;;;;;;;;;27.24;48.54;99350.34;3163518;28;20381;-66
2022/07/26 06:23:52;;;;;;;;;;;;;;;27.30;48.03;99349.63;3167316;28;20414;-66
2022/07/26 06:25:24;;;;;;;;;;;;;;;27.38;48.28;99349.50;3165639;28;19936;-67
2022/07/26 06:26:56;;;;;;;;;;;;;;;27.45;47.89;99349.59;3168346;28;19936;-66
2022/07/26 06:28:29;;;;;;;;;;;;;;;27.51;47.77;99335.44;3168831;28;20385;-66
2022/07/26 06:30:00;;;;;;;;;;;;;;;27.55;47.86;99335.88;3170416;28;19924;-66
2022/07/26 06:31:32;;;;;;;;;;;;;;;27.49;47.47;99328.63;3171233;28;20711;-66
2022/07/26 06:33:04;;;;;;;;;;;;;;;27.39;47.85;99335.13;3170636;28;19923;-66
2022/07/26 06:34:35;;;;;;;;;;;;;;;27.36;47.73;99327.47;3170424;28;19931;-66
2022/07/26 06:36:07;;;;;;;;;;;;;;;27.41;48.17;99335.75;3166763;28;19924;-66
2022/07/26 06:37:40;;;;;;;;;;;;;;;27.41;48.16;99330.38;3171342;28;19924;-66
2022/07/26 06:39:11;;;;;;;;;;;;;;;27.49;48.04;99328.63;3163991;28;20538;-66
2022/07/26 06:40:42;;;;;;;;;;;;;;;27.56;47.78;99327.66;3165717;28;19937;-67
2022/07/26 06:42:13;;;;;;;;;;;;;;;27.63;47.52;99327.75;3167305;28;20014;-67
2022/07/26 06:43:46;;;;;;;;;;;;;;;27.68;47.65;99327.97;3167745;28;19927;-66
2022/07/26 06:45:18;;;;;;;;;;;;;;;27.77;47.27;99323.34;3168210;28;19931;-67
2022/07/26 06:46:49;;;;;;;;;;;;;;;27.85;47.11;99324.06;3168992;28;19939;-67
2022/07/26 06:48:21;;;;;;;;;;;;;;;27.96;46.73;99322.72;3168264;28;20309;-66
2022/07/26 06:49:52;;;;;;;;;;;;;;;28.03;46.82;99318.25;3166502;28;19947;-67
2022/07/26 06:51:24;;;;;;;;;;;;;;;28.06;46.60;99320.53;3162455;28;20289;-66
2022/07/26 06:52:56;;;;;;;;;;;;;;;28.07;46.55;99316.84;3160827;28;19924;-67
2022/07/26 06:54:27;;;;;;;;;;;;;;;28.13;46.65;99315.25;3159676;28;20456;-67
2022/07/26 06:55:59;;;;;;;;;;;;;;;28.19;46.07;99306.44;3159248;28;20269;-66
2022/07/26 06:57:30;;;;;;;;;;;;;;;28.26;46.24;99307.28;3169098;28;19928;-67
2022/07/26 06:59:03;;;;;;;;;;;;;;;28.39;45.88;99311.91;3168783;28;19924;-67
2022/07/26 07:00:35;;;;;;;;;;;;;;;28.50;45.57;99313.25;3168547;28;19932;-66
2022/07/26 07:02:06;;;;;;;;;;;;;;;28.61;45.67;99309.19;3167897;28;19924;-67
2022/07/26 07:03:38;;;;;;;;;;;;;;;28.68;45.44;99307.34;3168982;28;19928;-67
2022/07/26 07:05:10;;;;;;;;;;;;;;;28.74;45.51;99309.25;3159989;28;19980;-67
2022/07/26 07:06:42;;;;;;;;;;;;;;;28.76;45.23;99308.03;3168103;28;19930;-66
2022/07/26 07:08:13;;;;;;;;;;;;;;;28.78;44.71;99305.97;3171014;28;19924;-66
2022/07/26 07:09:46;;;;;;;;;;;;;;;28.70;44.68;99303.47;3167718;28;20313;-66
2022/07/26 07:11:17;;;;;;;;;;;;;;;28.65;44.68;99308.56;3159387;28;19928;-66
2022/07/26 07:12:49;;;;;;;;;;;;;;;28.64;44.78;99312.28;3167017;28;19928;-64
2022/07/26 07:14:22;;;;;;;;;;;;;;;28.63;44.65;99310.63;3161096;28;20013;-66
2022/07/26 07:15:53;;;;;;;;;;;;;;;28.64;44.80;99311.47;3166476;28;20019;-64
2022/07/26 07:17:25;;;;;;;;;;;;;;;28.69;44.76;99317.91;3164833;28;19953;-65
2022/07/26 07:18:56;;;;;;;;;;;;;;;28.78;44.53;99313.16;3164674;28;19927;-64
2022/07/26 07:20:28;;;;;;;;;;;;;;;28.90;44.49;99313.44;3164256;27;19935;-65
2022/07/26 07:21:59;;;;;;;;;;;;;;;29.08;44.24;99308.41;3161961;28;19934;-66
2022/07/26 07:23:32;;;;;;;;;;;;;;;29.23;44.42;99311.75;3168724;28;19924;-67
2022/07/26 07:25:04;;;;;;;;;;;;;;;29.39;43.80;99309.72;3169210;28;19924;-66
2022/07/26 07:26:35;;;;;;;;;;;;;;;29.47;43.39;99314.88;3169873;28;19935;-64
2022/07/26 07:28:07;;;;;;;;;;;;;;;29.57;43.15;99312.63;3171187;28;19969;-65
2022/07/26 07:29:40;;;;;;;;;;;;;;;29.65;43.17;99314.31;3170836;28;19935;-68
2022/07/26 07:31:11;;;;;;;;;;;;;;;29.70;42.81;99317.22;3170931;28;19989;-68
2022/07/26 07:32:43;;;;;;;;;;;;;;;29.66;42.65;99305.22;3164594;28;19931;-67
2022/07/26 07:34:15;;;;;;;;;;;;;;;29.73;42.80;99313.28;3164953;28;20370;-68
2022/07/26 07:35:46;;;;;;;;;;;;;;;29.78;42.54;99318.88;3163350;28;20367;-68
2022/07/26 07:37:18;;;;;;;;;;;;;;;29.83;42.37;99311.03;3157044;28;20329;-68
2022/07/26 07:38:50;;;;;;;;;;;;;;;29.90;42.61;99309.16;3152336;28;19928;-68
2022/07/26 07:40:22;;;;;;;;;;;;;;;30.03;42.30;99308.34;3167102;28;20418;-68
2022/07/26 07:41:53;;;;;;;;;;;;;;;30.14;42.50;99313.94;3168559;28;20019;-68
2022/07/26 07:43:25;;;;;;;;;;;;;;;30.25;42.10;99311.66;3168479;28;19927;-68
2022/07/26 07:44:58;;;;;;;;;;;;;;;30.35;42.19;99309.38;3168980;28;20041;-67
2022/07/26 07:46:29;;;;;;;;;;;;;;;30.37;41.90;99304.59;3165150;28;20041;-67
2022/07/26 07:48:01;;;;;;;;;;;;;;;30.38;41.37;99306.28;3169089;28;20001;-67
2022/07/26 07:49:32;;;;;;;;;;;;;;;30.42;41.58;99306.69;3169461;28;20322;-67
2022/07/26 07:51:04;;;;;;;;;;;;;;;30.51;41.46;99303.53;3166851;28;19924;-67
2022/07/26 07:52:35;;;;;;;;;;;;;;;30.60;41.02;99302.28;3169062;28;19924;-67
2022/07/26 07:54:07;;;;;;;;;;;;;;;30.69;41.35;99305.56;3158580;28;20254;-67
2022/07/26 07:55:38;;;;;;;;;;;;;;;30.79;40.88;99307.81;3158635;28;19924;-68
2022/07/26 07:57:10;;;;;;;;;;;;;;;30.90;41.01;99312.53;3168030;28;19924;-67
2022/07/26 07:58:42;;;;;;;;;;;;;;;30.94;40.62;99307.56;3169422;28;19930;-67
2022/07/26 08:00:17;;;;;;;;;;;;;;;30.92;40.44;99310.47;3167877;28;19999;-67
2022/07/26 08:01:49;;;;;;;;;;;;;;;30.89;40.31;99307.38;3169310;28;19936;-67